Time;durP1;ratioP1;P1;durP2;ratioP2;P2;SDS_P1;SDS_P2;PMS_P1;PMS_P2;Temp;Humidity;BMP_temperature;BMP_pressure;BME280_temperature;BME280_humidity;BME280_pressure;Samples;Min_cycle;Max_cycle;Signal;HPM_P1;HPM_P2
2022/05/13 00:01:30;;;;;;;9.43;4.95;;;;;;;17.15;73.85;100634.13;1768300;81;21499;-61
2022/05/13 00:03:57;;;;;;;7.72;5.00;;;;;;;17.11;74.12;100649.58;1768506;81;21515;-61
2022/05/13 00:06:25;;;;;;;7.95;4.53;;;;;;;17.10;74.44;100650.50;1768177;81;21488;-61
2022/05/13 00:08:54;;;;;;;8.48;4.97;;;;;;;17.07;74.80;100657.23;1768252;81;21103;-61
2022/05/13 00:11:21;;;;;;;11.65;4.95;;;;;;;17.05;75.33;100662.16;1768092;80;21122;-61
2022/05/13 00:13:49;;;;;;;10.45;4.85;;;;;;;16.99;76.11;100672.05;1768213;81;21078;-61
2022/05/13 00:16:16;;;;;;;9.15;4.58;;;;;;;16.93;76.55;100667.28;1768587;81;21027;-61
2022/05/13 00:18:43;;;;;;;10.63;5.25;;;;;;;16.90;77.25;100679.64;1768108;81;21047;-62
2022/05/13 00:21:11;;;;;;;10.48;4.87;;;;;;;16.88;77.79;100673.24;1768183;81;21091;-61
2022/05/13 00:23:39;;;;;;;9.33;5.10;;;;;;;16.81;78.11;100672.84;1768232;81;21466;-61
2022/05/13 00:26:06;;;;;;;10.28;5.15;;;;;;;16.80;78.43;100665.09;1768097;81;21031;-61
2022/05/13 00:28:34;;;;;;;10.95;4.75;;;;;;;16.75;78.88;100664.12;1768254;81;21039;-61
2022/05/13 00:31:04;;;;;;;9.13;5.20;;;;;;;16.67;80.08;100663.80;1768171;81;21031;-62
2022/05/13 00:33:33;;;;;;;10.70;5.55;;;;;;;16.61;81.27;100663.73;1768344;81;21059;-62
2022/05/13 00:36:00;;;;;;;10.82;5.05;;;;;;;16.54;82.30;100663.77;1768334;81;21554;-61
2022/05/13 00:38:30;;;;;;;9.30;4.78;;;;;;;16.54;82.58;100661.65;1768233;81;21039;-61
2022/05/13 00:40:58;;;;;;;9.45;5.17;;;;;;;16.60;83.81;100667.26;1768368;81;21000;-61
2022/05/13 00:43:42;;;;;;;8.93;4.90;;;;;;;16.48;83.87;100663.36;1768200;81;21028;-61
2022/05/13 00:46:09;;;;;;;11.10;4.87;;;;;;;16.42;84.65;100676.28;1768353;80;21591;-61
2022/05/13 00:48:38;;;;;;;9.73;5.42;;;;;;;16.42;85.32;100678.88;1768264;81;21507;-61
2022/05/13 00:51:09;;;;;;;10.05;5.08;;;;;;;16.39;86.12;100672.60;1768468;81;21567;-61
2022/05/13 00:53:36;;;;;;;12.28;5.30;;;;;;;16.38;87.25;100670.92;1727801;83;21531;-60
2022/05/13 00:56:06;;;;;;;11.78;5.30;;;;;;;16.40;87.64;100670.35;1768083;81;21528;-61
2022/05/13 00:58:36;;;;;;;8.58;5.15;;;;;;;16.42;88.42;100674.98;1768205;80;21035;-61
2022/05/13 01:01:04;;;;;;;11.80;4.95;;;;;;;16.40;89.23;100680.30;1728039;83;21032;-60
2022/05/13 01:03:32;;;;;;;10.00;5.47;;;;;;;16.39;90.08;100685.12;1767967;80;21564;-61
2022/05/13 01:06:05;;;;;;;10.93;5.30;;;;;;;16.35;91.01;100687.55;1768176;81;20996;-61
2022/05/13 01:08:35;;;;;;;10.40;5.22;;;;;;;16.30;92.01;100687.48;1727842;83;21539;-61
2022/05/13 01:11:06;;;;;;;13.22;5.80;;;;;;;16.35;92.05;100675.03;1768213;80;21050;-60
2022/05/13 01:13:37;;;;;;;13.08;5.50;;;;;;;16.28;92.84;100675.91;1768424;81;21003;-61
2022/05/13 01:16:05;;;;;;;12.63;5.75;;;;;;;16.30;92.84;100664.95;1727898;83;21063;-61
2022/05/13 01:18:37;;;;;;;11.03;5.37;;;;;;;16.26;93.62;100665.23;1768329;80;21555;-61
2022/05/13 01:21:07;;;;;;;10.18;5.60;;;;;;;16.25;94.41;100657.09;1768369;81;21015;-61
2022/05/13 01:23:43;;;;;;;11.03;5.20;;;;;;;16.21;95.01;100659.88;1727925;83;21001;-61
2022/05/13 01:26:19;;;;;;;9.33;5.08;;;;;;;16.19;95.41;100647.45;1768420;81;20999;-61
2022/05/13 01:28:54;;;;;;;10.15;5.40;;;;;;;16.14;96.76;100642.19;1768340;80;21051;-61
2022/05/13 01:31:31;;;;;;;9.58;5.30;;;;;;;16.23;97.28;100638.53;1727930;83;21098;-62
2022/05/13 01:34:02;;;;;;;12.63;5.33;;;;;;;16.28;96.70;100633.05;1768539;81;21106;-62
2022/05/13 01:36:31;;;;;;;9.75;5.60;;;;;;;16.13;97.83;100626.25;1768455;81;21028;-62
2022/05/13 01:38:59;;;;;;;10.85;5.50;;;;;;;16.14;99.59;100628.76;1727558;83;21035;-61
2022/05/13 01:41:26;;;;;;;15.98;5.35;;;;;;;16.15;99.63;100641.27;1768386;81;21043;-61
2022/05/13 01:43:55;;;;;;;13.55;5.40;;;;;;;16.18;98.53;100643.20;1768315;81;21079;-61
2022/05/13 01:46:24;;;;;;;13.10;5.58;;;;;;;16.17;99.48;100661.00;1727785;83;21075;-62
2022/05/13 01:48:52;;;;;;;11.60;5.47;;;;;;;16.18;99.01;100657.94;1768383;81;21424;-62
2022/05/13 01:51:21;;;;;;;10.40;4.97;;;;;;;16.18;99.56;100682.61;1768132;81;21024;-61
2022/05/13 01:53:49;;;;;;;16.12;6.05;;;;;;;16.24;99.08;100678.34;1727827;83;21052;-61
2022/05/13 01:56:16;;;;;;;9.70;5.30;;;;;;;16.21;99.28;100680.66;1768403;81;21043;-61
2022/05/13 01:58:43;;;;;;;9.55;4.83;;;;;;;16.28;98.99;100673.76;1774772;80;21131;-61
2022/05/13 02:01:11;;;;;;;8.03;5.45;;;;;;;16.37;98.61;100680.48;1786172;80;21528;-61
2022/05/13 02:03:44;;;;;;;9.10;5.40;;;;;;;16.30;98.88;100667.99;1786117;80;21578;-61
2022/05/13 02:06:25;;;;;;;14.25;5.55;;;;;;;16.35;98.48;100649.05;1786090;80;21090;-61
2022/05/13 02:08:56;;;;;;;10.50;5.40;;;;;;;16.47;98.29;100643.52;1786257;80;21046;-61
2022/05/13 02:11:27;;;;;;;10.30;5.12;;;;;;;16.43;98.63;100637.69;1785796;79;21111;-61
2022/05/13 02:13:54;;;;;;;10.75;4.87;;;;;;;16.39;99.22;100644.02;1786007;80;21024;-61
2022/05/13 02:16:21;;;;;;;9.45;5.12;;;;;;;16.40;98.88;100640.03;1785925;80;21050;-61
2022/05/13 02:18:49;;;;;;;8.45;5.03;;;;;;;16.38;100.00;100627.61;1785930;80;21031;-61
2022/05/13 02:21:17;;;;;;;9.88;5.35;;;;;;;16.34;100.00;100607.11;1786285;80;21063;-61
2022/05/13 02:23:45;;;;;;;10.13;5.25;;;;;;;16.45;100.00;100613.73;1786058;80;21536;-60
2022/05/13 02:26:16;;;;;;;9.83;5.10;;;;;;;16.33;100.00;100632.27;1786268;80;21496;-61
2022/05/13 02:28:44;;;;;;;9.38;5.10;;;;;;;16.25;100.00;100641.50;1786280;80;21568;-61
2022/05/13 02:31:13;;;;;;;10.80;5.42;;;;;;;16.28;100.00;100632.20;1785924;80;21032;-61
2022/05/13 02:33:41;;;;;;;9.10;5.28;;;;;;;16.34;100.00;100641.73;1786316;80;21027;-61
2022/05/13 02:36:11;;;;;;;13.05;5.85;;;;;;;16.37;100.00;100649.78;1785918;80;21055;-61
2022/05/13 02:38:38;;;;;;;10.85;5.33;;;;;;;16.43;100.00;100646.78;1786408;80;21007;-61
2022/05/13 02:41:12;;;;;;;10.58;5.22;;;;;;;16.41;100.00;100639.55;1786031;80;21024;-61
2022/05/13 02:43:50;;;;;;;10.08;5.33;;;;;;;16.63;100.00;100629.38;1785979;80;21094;-61
2022/05/13 02:46:28;;;;;;;12.20;5.60;;;;;;;16.55;100.00;100623.05;1786375;80;21534;-62
2022/05/13 02:48:55;;;;;;;9.23;5.30;;;;;;;16.63;100.00;100618.16;1786270;80;21066;-61
2022/05/13 02:51:23;;;;;;;8.95;5.35;;;;;;;16.64;100.00;100619.81;1786333;80;21043;-61
2022/05/13 02:53:51;;;;;;;7.58;5.33;;;;;;;16.63;100.00;100612.97;1785981;80;21036;-61
2022/05/13 02:56:18;;;;;;;10.78;5.75;;;;;;;16.63;100.00;100602.09;1786127;80;21031;-61
2022/05/13 02:58:46;;;;;;;11.18;5.50;;;;;;;16.84;100.00;100611.98;1781225;80;21051;-61
2022/05/13 03:01:16;;;;;;;12.75;5.20;;;;;;;16.78;100.00;100622.30;1768198;81;21539;-61
2022/05/13 03:03:46;;;;;;;11.78;5.28;;;;;;;16.69;100.00;100617.75;1768585;81;21539;-61
2022/05/13 03:06:13;;;;;;;8.60;5.40;;;;;;;16.65;100.00;100627.98;1768520;81;21047;-61
2022/05/13 03:08:41;;;;;;;11.40;5.20;;;;;;;16.61;100.00;100658.55;1768246;81;21043;-61
2022/05/13 03:11:10;;;;;;;13.00;5.80;;;;;;;16.70;100.00;100656.26;1768122;80;21086;-61
2022/05/13 03:13:38;;;;;;;8.90;5.22;;;;;;;16.77;100.00;100653.63;1768234;81;21003;-61
2022/05/13 03:16:11;;;;;;;12.07;5.55;;;;;;;16.75;100.00;100665.89;1768484;81;21035;-61
2022/05/13 03:18:41;;;;;;;8.93;5.45;;;;;;;16.65;100.00;100681.75;1768432;81;21007;-60
2022/05/13 03:21:09;;;;;;;13.35;5.60;;;;;;;16.73;100.00;100678.16;1768491;81;20988;-61
2022/05/13 03:23:37;;;;;;;10.32;5.17;;;;;;;16.78;100.00;100677.37;1768262;81;21067;-61
2022/05/13 03:26:05;;;;;;;11.60;5.70;;;;;;;16.73;100.00;100675.56;1768701;81;20972;-61
2022/05/13 03:28:32;;;;;;;9.28;5.12;;;;;;;16.74;100.00;100675.91;1768322;81;21058;-60
2022/05/13 03:31:00;;;;;;;8.93;5.30;;;;;;;16.86;100.00;100684.69;1768255;81;21036;-60
2022/05/13 03:33:27;;;;;;;10.88;5.53;;;;;;;16.94;100.00;100688.42;1768411;81;21027;-60
2022/05/13 03:35:55;;;;;;;13.35;5.90;;;;;;;16.98;100.00;100687.28;1753036;81;21028;-60
2022/05/13 03:38:22;;;;;;;11.40;5.67;;;;;;;16.97;100.00;100684.33;1768475;81;21385;-61
2022/05/13 03:40:50;;;;;;;10.80;5.65;;;;;;;16.90;100.00;100678.34;1768136;81;21035;-60
2022/05/13 03:43:17;;;;;;;13.10;5.75;;;;;;;16.90;100.00;100682.25;1727974;83;21091;-61
2022/05/13 03:45:44;;;;;;;9.75;5.78;;;;;;;17.01;100.00;100683.63;1768263;81;21087;-61
2022/05/13 03:48:12;;;;;;;12.25;6.08;;;;;;;17.07;100.00;100683.24;1768276;81;21075;-60
2022/05/13 03:50:43;;;;;;;13.03;6.50;;;;;;;17.14;100.00;100685.77;1727943;83;21047;-60
2022/05/13 03:53:11;;;;;;;10.60;5.58;;;;;;;17.31;100.00;100690.27;1768591;81;21559;-60
2022/05/13 03:55:38;;;;;;;9.68;5.55;;;;;;;17.29;100.00;100699.48;1768599;81;21050;-60
2022/05/13 03:58:05;;;;;;;9.58;5.78;;;;;;;17.37;100.00;100698.95;1727707;83;21055;-61
2022/05/13 04:00:34;;;;;;;12.25;5.60;;;;;;;17.44;100.00;100695.00;1784206;80;21050;-60
2022/05/13 04:03:01;;;;;;;10.80;5.58;;;;;;;17.63;100.00;100695.83;1786269;80;20995;-60
2022/05/13 04:11:02;;;;;;;10.10;5.25;;;;;;;17.72;100.00;100709.51;1786215;79;21531;-61
2022/05/13 04:16:15;;;;;;;10.25;5.25;;;;;;;17.99;100.00;100718.92;1786199;80;21035;-61
2022/05/13 04:18:50;;;;;;;12.73;6.47;;;;;;;18.08;100.00;100728.66;1786116;80;21067;-60
2022/05/13 04:21:21;;;;;;;11.97;6.08;;;;;;;18.13;100.00;100729.17;1786191;80;21000;-60
2022/05/13 04:23:52;;;;;;;10.23;5.20;;;;;;;18.29;100.00;100744.53;1786324;80;21014;-60
2022/05/13 04:26:20;;;;;;;11.40;5.65;;;;;;;18.56;100.00;100753.39;1786082;80;21566;-60
2022/05/13 04:28:50;;;;;;;11.83;5.60;;;;;;;18.73;100.00;100765.66;1786234;80;21040;-60
2022/05/13 04:31:56;;;;;;;11.73;6.05;;;;;;;18.76;100.00;100757.61;1763515;80;21031;-61
2022/05/13 04:34:23;;;;;;;12.68;5.83;;;;;;;18.87;100.00;100750.31;1786242;80;21044;-61
2022/05/13 04:36:51;;;;;;;9.50;5.67;;;;;;;19.03;99.72;100747.38;1786190;80;21568;-60
2022/05/13 04:39:18;;;;;;;13.25;5.50;;;;;;;19.09;99.63;100738.61;1786228;80;21028;-61
2022/05/13 04:44:31;;;;;;;15.85;6.00;;;;;;;19.37;98.26;100742.54;1785990;80;21031;-61
2022/05/13 04:46:58;;;;;;;9.95;5.83;;;;;;;19.36;97.95;100737.43;1786204;80;21512;-61
2022/05/13 04:49:25;;;;;;;9.58;5.62;;;;;;;19.21;98.90;100733.75;1785893;80;21063;-61
2022/05/13 04:51:52;;;;;;;12.47;6.30;;;;;;;19.34;100.00;100743.24;1786160;80;21059;-61
2022/05/13 04:54:19;;;;;;;11.33;6.08;;;;;;;19.08;100.00;100734.35;1786021;80;21071;-60
2022/05/13 04:56:47;;;;;;;13.13;5.92;;;;;;;19.07;100.00;100729.25;1786160;80;21575;-60
2022/05/13 04:59:14;;;;;;;16.17;7.28;;;;;;;19.15;100.00;100736.83;1785796;80;21047;-60
2022/05/13 05:01:43;;;;;;;13.13;6.65;;;;;;;19.50;99.81;100733.27;1785852;80;21035;-60
2022/05/13 05:04:10;;;;;;;10.55;5.55;;;;;;;19.75;96.81;100727.00;1786115;80;21019;-60
2022/05/13 05:06:37;;;;;;;10.48;5.42;;;;;;;19.78;96.01;100732.45;1785978;80;21027;-61
2022/05/13 05:09:04;;;;;;;12.43;5.60;;;;;;;19.84;95.60;100728.03;1786138;80;21524;-60
2022/05/13 05:11:31;;;;;;;12.00;5.00;;;;;;;20.11;94.01;100738.05;1785833;79;21142;-60
2022/05/13 05:13:59;;;;;;;14.40;5.03;;;;;;;20.36;90.20;100747.84;1786151;80;21067;-60
2022/05/13 05:16:26;;;;;;;13.13;5.35;;;;;;;20.54;88.45;100746.34;1786087;80;20999;-60
2022/05/13 05:18:54;;;;;;;10.85;5.05;;;;;;;20.71;87.54;100742.83;1786167;80;21082;-61
2022/05/13 05:21:21;;;;;;;7.08;4.90;;;;;;;20.82;86.30;100749.29;1786002;80;20988;-61
2022/05/13 05:23:49;;;;;;;9.93;5.37;;;;;;;21.31;84.25;100738.61;1786255;80;21086;-60
2022/05/13 05:26:16;;;;;;;8.38;4.87;;;;;;;21.49;83.05;100745.41;1785963;80;21032;-61
2022/05/13 05:28:46;;;;;;;10.32;5.75;;;;;;;21.69;82.68;100753.30;1786004;80;21079;-60
2022/05/13 05:31:14;;;;;;;11.20;5.17;;;;;;;21.83;83.09;100750.79;1786213;80;21484;-61
2022/05/13 05:33:42;;;;;;;10.60;5.17;;;;;;;21.69;84.82;100746.27;1785860;80;21019;-60
2022/05/13 05:36:10;;;;;;;11.38;5.58;;;;;;;21.83;82.58;100752.92;1786010;80;21031;-61
2022/05/13 05:38:37;;;;;;;13.25;4.78;;;;;;;21.85;83.06;100764.59;1786070;80;21071;-60
2022/05/13 05:41:04;;;;;;;9.48;4.95;;;;;;;21.97;81.17;100762.20;1786204;80;21039;-60
2022/05/13 05:43:34;;;;;;;13.30;4.90;;;;;;;22.07;80.13;100757.80;1785950;80;21087;-60
2022/05/13 05:46:00;;;;;;;12.28;5.45;;;;;;;22.14;79.22;100769.41;1785902;80;21047;-60
2022/05/13 05:48:30;;;;;;;11.22;5.35;;;;;;;22.19;80.10;100769.81;1786393;80;21495;-60
2022/05/13 05:50:58;;;;;;;9.58;4.60;;;;;;;22.47;80.53;100771.31;1786406;80;21011;-60
2022/05/13 05:59:04;;;;;;;9.83;5.78;;;;;;;22.77;77.18;100764.25;1777291;80;21057;-61
2022/05/13 06:01:33;;;;;;;12.07;5.58;;;;;;;23.13;76.86;100763.96;1768198;80;21457;-61
2022/05/13 06:04:00;;;;;;;10.40;5.85;;;;;;;22.99;76.25;100771.80;1767072;80;21512;-62
2022/05/13 06:06:27;;;;;;;12.95;6.00;;;;;;;22.87;76.55;100770.31;1767630;80;21056;-61
2022/05/13 06:08:55;;;;;;;13.53;7.15;;;;;;;22.94;76.54;100780.57;1770263;80;21488;-62
2022/05/13 06:11:24;;;;;;;16.60;7.97;;;;;;;23.31;76.26;100782.92;1769134;79;21619;-62
2022/05/13 06:13:57;;;;;;;18.65;7.95;;;;;;;23.24;75.35;100780.05;1770201;80;21043;-61
2022/05/13 06:16:26;;;;;;;13.40;7.92;;;;;;;23.50;73.91;100780.69;1771425;80;21655;-61
2022/05/13 06:19:00;;;;;;;14.33;7.85;;;;;;;23.46;74.27;100780.18;1772830;80;21007;-61
2022/05/13 06:21:24;;;;;;;18.73;9.25;;;;;;;23.30;75.40;100772.91;1770695;80;21064;-61
2022/05/13 06:23:51;;;;;;;23.83;9.35;;;;;;;23.19;74.19;100778.33;1767567;80;21049;-61
2022/05/13 06:26:21;;;;;;;21.27;10.45;;;;;;;23.38;74.64;100789.27;1768319;80;20964;-61
2022/05/13 06:28:48;;;;;;;19.60;10.53;;;;;;;23.33;73.92;100784.42;1770675;80;21014;-62
2022/05/13 06:31:18;;;;;;;22.77;10.58;;;;;;;23.48;73.58;100781.33;1768102;80;21009;-61
2022/05/13 06:33:45;;;;;;;24.27;9.83;;;;;;;23.58;73.83;100786.90;1767337;80;20984;-62
2022/05/13 06:36:14;;;;;;;25.57;10.30;;;;;;;23.61;73.80;100787.09;1764445;80;21009;-61
2022/05/13 06:38:42;;;;;;;24.40;11.05;;;;;;;23.65;73.34;100785.00;1768280;80;20972;-61
2022/05/13 06:41:09;;;;;;;19.75;10.72;;;;;;;23.89;71.87;100777.42;1770810;80;20976;-61
2022/05/13 06:43:43;;;;;;;25.25;11.78;;;;;;;23.89;73.23;100781.86;1768526;80;20998;-61
2022/05/13 06:46:12;;;;;;;34.67;12.07;;;;;;;24.09;72.02;100775.50;1753650;80;20988;-61
2022/05/13 06:48:39;;;;;;;23.80;11.28;;;;;;;24.18;70.42;100772.45;1768546;80;20992;-61
2022/05/13 06:51:07;;;;;;;24.67;12.18;;;;;;;24.22;69.45;100770.35;1770802;80;21555;-61
2022/05/13 06:53:34;;;;;;;27.75;12.60;;;;;;;24.07;71.43;100765.61;1782076;80;21023;-61
2022/05/13 06:56:01;;;;;;;28.45;13.40;;;;;;;23.63;71.09;100779.88;1785068;80;21028;-61
2022/05/13 06:58:28;;;;;;;27.20;13.30;;;;;;;23.69;70.19;100775.35;1756681;80;21046;-61
2022/05/13 07:00:57;;;;;;;32.28;13.65;;;;;;;23.54;71.10;100766.29;1747170;81;21112;-61
2022/05/13 07:03:24;;;;;;;29.50;13.45;;;;;;;23.69;73.05;100768.78;1713286;82;21039;-61
2022/05/13 07:05:53;;;;;;;26.75;13.53;;;;;;;23.84;72.13;100759.11;1747136;82;20999;-62
2022/05/13 07:08:21;;;;;;;25.85;13.95;;;;;;;23.83;71.32;100761.42;1746922;82;21005;-61
2022/05/13 07:10:48;;;;;;;28.87;13.75;;;;;;;23.88;71.17;100748.14;1740039;82;21121;-62
2022/05/13 07:13:16;;;;;;;25.82;13.48;;;;;;;24.16;70.82;100748.10;1748601;82;21020;-62
2022/05/13 07:15:45;;;;;;;26.52;14.00;;;;;;;24.17;68.64;100749.77;1756921;82;21012;-62
2022/05/13 07:18:13;;;;;;;23.00;12.23;;;;;;;24.17;69.68;100754.53;1756857;82;21019;-62
2022/05/13 07:20:42;;;;;;;24.05;12.00;;;;;;;24.39;68.83;100753.72;1756837;82;21055;-62
2022/05/13 07:23:09;;;;;;;25.27;12.25;;;;;;;24.17;68.28;100753.22;1756844;82;21028;-60
2022/05/13 07:25:38;;;;;;;16.32;9.75;;;;;;;24.22;67.96;100762.46;1756557;82;21004;-61
2022/05/13 07:28:05;;;;;;;15.68;9.20;;;;;;;24.24;66.55;100757.38;1756878;82;21000;-60
2022/05/13 07:30:34;;;;;;;15.72;9.40;;;;;;;24.23;64.16;100764.95;1756619;82;21056;-61
2022/05/13 07:33:01;;;;;;;20.27;11.57;;;;;;;24.24;63.92;100758.70;1716730;84;21048;-61
2022/05/13 07:35:28;;;;;;;20.23;10.65;;;;;;;24.31;65.26;100758.91;1756716;82;21051;-60
2022/05/13 07:37:57;;;;;;;22.85;10.85;;;;;;;24.35;65.91;100756.31;1716690;84;21016;-61
2022/05/13 07:43:10;;;;;;;16.12;9.60;;;;;;;24.53;65.50;100753.70;1716729;84;21067;-61
2022/05/13 07:45:38;;;;;;;17.32;9.13;;;;;;;24.58;64.99;100755.40;1756916;81;21037;-61
2022/05/13 07:48:08;;;;;;;18.23;8.95;;;;;;;24.79;63.54;100758.99;1701509;84;21055;-62
2022/05/13 07:50:35;;;;;;;17.48;9.05;;;;;;;24.90;62.71;100763.17;1742400;82;21085;-61
2022/05/13 07:53:03;;;;;;;14.68;8.48;;;;;;;24.84;61.25;100765.95;1690614;84;21040;-61
2022/05/13 07:55:31;;;;;;;17.17;9.58;;;;;;;24.80;60.64;100767.24;1747648;82;21044;-61
2022/05/13 07:58:00;;;;;;;19.95;9.55;;;;;;;24.83;61.82;100766.10;1747015;82;21478;-61
2022/05/13 08:00:29;;;;;;;20.45;10.13;;;;;;;24.99;59.56;100763.57;1667222;84;21094;-61
2022/05/13 08:03:02;;;;;;;20.85;10.63;;;;;;;25.11;58.03;100766.77;1688299;84;21027;-62
2022/05/13 08:05:40;;;;;;;21.90;11.63;;;;;;;25.10;59.78;100758.05;1737919;82;21074;-60
2022/05/13 08:08:15;;;;;;;23.42;12.90;;;;;;;25.04;58.07;100757.36;1739790;82;21543;-61
2022/05/13 08:10:50;;;;;;;22.37;13.28;;;;;;;25.19;59.38;100756.28;1739630;81;21087;-61
2022/05/13 08:13:18;;;;;;;29.02;14.83;;;;;;;25.34;58.21;100748.13;1739795;82;21539;-61
2022/05/13 08:15:47;;;;;;;29.02;13.93;;;;;;;25.48;59.40;100751.98;1740016;82;21479;-61
2022/05/13 08:18:16;;;;;;;26.35;14.30;;;;;;;25.54;58.98;100747.38;1731697;82;21635;-61
2022/05/13 08:20:45;;;;;;;31.10;15.32;;;;;;;25.61;59.10;100745.42;1717140;83;21568;-61
2022/05/13 08:23:13;;;;;;;27.15;14.95;;;;;;;25.89;58.38;100739.41;1717176;83;21580;-61
2022/05/13 08:25:40;;;;;;;32.15;15.65;;;;;;;25.95;58.07;100742.74;1719996;83;21052;-61
2022/05/13 08:28:09;;;;;;;26.50;13.30;;;;;;;26.11;58.36;100738.80;1719592;83;21030;-61
2022/05/13 08:30:37;;;;;;;28.07;13.85;;;;;;;26.09;56.63;100742.09;1671078;86;21034;-61
2022/05/13 08:33:10;;;;;;;31.17;14.68;;;;;;;25.82;56.13;100738.42;1668023;86;21101;-62
2022/05/13 08:35:46;;;;;;;22.30;13.83;;;;;;;25.58;57.16;100730.77;1669097;86;21075;-61
2022/05/13 08:38:18;;;;;;;27.45;13.48;;;;;;;25.90;58.53;100718.18;1669409;85;21034;-61
2022/05/13 08:40:54;;;;;;;20.87;12.33;;;;;;;26.31;58.45;100723.98;1672688;86;21004;-62
2022/05/13 08:43:47;;;;;;;21.97;12.05;;;;;;;26.47;57.01;100718.69;1715501;83;21736;-62
2022/05/13 08:46:34;;;;;;;19.65;9.80;;;;;;;26.59;59.79;100721.84;1715188;84;21545;-62
2022/05/13 08:49:36;;;;;;;15.70;7.33;;;;;;;26.19;57.46;100724.30;1717316;83;21053;-62
2022/05/13 08:55:29;;;;;;;11.93;5.55;;;;;;;25.80;57.41;100729.34;1705943;83;21604;-61
2022/05/13 08:57:58;;;;;;;14.80;4.15;;;;;;;25.86;59.62;100735.28;1716410;83;21056;-61
2022/05/13 09:00:37;;;;;;;13.18;4.62;;;;;;;26.37;55.40;100728.09;1722039;82;21526;-61
2022/05/13 09:03:09;;;;;;;16.40;4.85;;;;;;;26.51;55.61;100731.06;1739218;82;21069;-62
2022/05/13 09:06:07;;;;;;;9.80;4.17;;;;;;;26.26;54.45;100736.36;1721587;82;21061;-62
2022/05/13 09:08:35;;;;;;;11.90;4.35;;;;;;;26.28;53.49;100734.88;1739075;82;21057;-61
2022/05/13 09:11:30;;;;;;;11.57;4.42;;;;;;;26.98;53.44;100739.09;1730700;83;21555;-62
2022/05/13 09:14:29;;;;;;;9.93;3.93;;;;;;;27.29;53.02;100728.28;1694872;84;21066;-61
2022/05/13 09:17:20;;;;;;;12.43;3.72;;;;;;;27.29;51.81;100726.48;1690937;83;21018;-63
2022/05/13 09:20:01;;;;;;;15.55;3.55;;;;;;;27.32;52.41;100730.59;1706057;83;21520;-62
2022/05/13 09:22:46;;;;;;;16.87;3.55;;;;;;;27.32;52.41;100730.59;1748698;81;21556;-62
2022/05/13 09:25:52;;;;;;;8.35;3.17;;;;;;;26.77;52.13;100725.62;1747422;81;21100;-62
2022/05/13 09:28:19;;;;;;;13.03;3.27;;;;;;;26.74;52.44;100736.50;1751406;81;21507;-62
2022/05/13 09:30:56;;;;;;;16.48;4.00;;;;;;;26.74;52.44;100736.50;1750721;81;21021;-62
2022/05/13 09:33:39;;;;;;;14.10;3.35;;;;;;;26.72;53.08;100730.56;1749160;81;21067;-61
2022/05/13 09:36:20;;;;;;;12.20;3.77;;;;;;;26.72;53.08;100730.56;1745573;81;21016;-62
2022/05/13 09:38:57;;;;;;;13.15;3.33;;;;;;;26.99;51.88;100729.37;1748843;81;21608;-62
2022/05/13 09:41:35;;;;;;;12.85;3.35;;;;;;;27.51;51.68;100731.98;1742976;81;20973;-63
2022/05/13 09:44:09;;;;;;;17.05;4.30;;;;;;;27.80;51.02;100719.91;1753110;81;21545;-62
2022/05/13 09:46:47;;;;;;;14.30;3.98;;;;;;;28.05;49.73;100717.97;1747555;81;21029;-62
2022/05/13 09:49:38;;;;;;;9.35;3.52;;;;;;;28.46;49.52;100703.87;1746182;81;21025;-61
2022/05/13 09:52:18;;;;;;;12.10;3.55;;;;;;;29.16;50.39;100706.65;1748413;81;21702;-62
2022/05/13 09:54:48;;;;;;;17.98;3.75;;;;;;;28.96;48.21;100709.52;1705305;81;21066;-62
2022/05/13 09:57:29;;;;;;;10.98;3.27;;;;;;;28.92;48.69;100711.70;1746971;81;21009;-62
2022/05/13 10:00:21;;;;;;;14.87;3.40;;;;;;;28.69;47.56;100710.47;1747761;81;20960;-62
2022/05/13 10:02:50;;;;;;;14.33;3.62;;;;;;;29.00;49.85;100704.17;1751287;81;21003;-62
2022/05/13 10:05:22;;;;;;;16.27;3.65;;;;;;;28.83;46.52;100717.27;1760839;81;21028;-62
2022/05/13 10:08:08;;;;;;;16.12;3.85;;;;;;;28.70;46.79;100698.86;1755552;81;21056;-62
2022/05/13 10:16:34;;;;;;;19.35;3.98;;;;;;;28.50;47.73;100688.48;1748116;81;21030;-62
2022/05/13 10:19:25;;;;;;;15.88;3.80;;;;;;;28.72;47.12;100699.50;1748482;81;20982;-62
2022/05/13 10:22:34;;;;;;;14.90;3.87;;;;;;;28.62;48.05;100692.33;1742838;81;21056;-63
2022/05/13 10:25:24;;;;;;;12.15;3.58;;;;;;;29.36;48.46;100692.31;1751411;81;21031;-63
2022/05/13 10:28:09;;;;;;;11.40;3.60;;;;;;;29.57;47.54;100690.69;1748602;81;21571;-62
2022/05/13 10:31:08;;;;;;;14.40;4.45;;;;;;;30.47;44.63;100697.75;1744285;81;21017;-61
2022/05/13 10:33:59;;;;;;;22.10;4.78;;;;;;;29.59;46.50;100713.06;1746861;81;21093;-62
2022/05/13 10:36:45;;;;;;;13.55;4.78;;;;;;;29.35;46.33;100701.77;1746007;81;20996;-61
2022/05/13 10:39:35;;;;;;;15.63;5.20;;;;;;;29.23;46.90;100696.62;1653770;85;21090;-62
2022/05/13 10:42:35;;;;;;;14.25;4.90;;;;;;;28.85;48.62;100694.87;1750763;81;21610;-63
2022/05/13 10:45:25;;;;;;;12.60;4.20;;;;;;;29.11;48.47;100680.38;1750014;81;21041;-61
2022/05/13 10:48:11;;;;;;;13.45;4.55;;;;;;;29.50;47.81;100697.27;1746750;81;21049;-62
2022/05/13 10:50:42;;;;;;;10.13;4.78;;;;;;;29.11;47.62;100699.73;1752349;81;21041;-62
2022/05/13 10:53:27;;;;;;;16.73;5.42;;;;;;;28.82;49.30;100693.94;1746366;81;20978;-62
2022/05/13 10:56:11;;;;;;;11.50;5.70;;;;;;;28.44;49.94;100682.04;1749474;81;21533;-61
2022/05/13 10:59:10;;;;;;;12.80;5.17;;;;;;;28.75;49.86;100691.20;1746655;81;21009;-62
2022/05/13 11:01:59;;;;;;;12.65;5.08;;;;;;;27.93;50.93;100694.55;1733854;80;21041;-62
2022/05/13 11:04:47;;;;;;;16.75;4.70;;;;;;;28.09;49.85;100687.50;1757731;81;21517;-62
2022/05/13 11:07:35;;;;;;;13.10;4.05;;;;;;;27.65;49.95;100703.98;1760599;81;21491;-62
2022/05/13 11:10:40;;;;;;;12.10;4.08;;;;;;;27.98;49.58;100690.05;1728839;82;21534;-63
2022/05/13 11:13:51;;;;;;;13.55;4.65;;;;;;;28.48;49.36;100685.97;1758644;81;21516;-62
2022/05/13 11:16:38;;;;;;;23.05;5.53;;;;;;;28.81;48.64;100690.13;1758145;81;21532;-63
2022/05/13 11:19:21;;;;;;;14.53;5.20;;;;;;;28.35;50.11;100682.62;1757367;81;21053;-62
2022/05/13 11:22:03;;;;;;;15.95;5.30;;;;;;;28.21;51.12;100685.26;1750498;80;21025;-63
2022/05/13 11:27:53;;;;;;;16.62;5.40;;;;;;;26.82;52.58;100711.39;1758310;81;20991;-62
2022/05/13 11:30:47;;;;;;;18.30;6.47;;;;;;;26.76;53.74;100696.22;1760066;81;21054;-61
2022/05/13 11:33:25;;;;;;;18.32;6.00;;;;;;;26.70;53.79;100703.50;1754482;80;21009;-62
2022/05/13 11:36:12;;;;;;;15.38;5.53;;;;;;;26.97;53.95;100703.11;1756624;81;21041;-62
2022/05/13 11:39:28;;;;;;;25.48;6.35;;;;;;;27.25;53.51;100684.21;1759498;81;20995;-62
2022/05/13 11:42:24;;;;;;;19.67;6.25;;;;;;;27.33;53.64;100690.78;1759644;81;21052;-61
2022/05/13 11:45:02;;;;;;;14.75;6.17;;;;;;;27.20;53.95;100694.94;1757750;81;21018;-61
2022/05/13 11:48:02;;;;;;;17.02;5.90;;;;;;;27.43;52.99;100696.33;1757015;81;21511;-61
2022/05/13 11:50:32;;;;;;;16.00;5.47;;;;;;;27.25;52.29;100692.14;1757216;81;21017;-62
2022/05/13 11:53:00;;;;;;;19.40;5.42;;;;;;;27.43;51.06;100692.37;1755549;81;21029;-61
2022/05/13 11:55:48;;;;;;;18.80;5.25;;;;;;;27.55;50.10;100693.11;1758228;81;21032;-62
2022/05/13 11:58:52;;;;;;;17.27;5.10;;;;;;;27.83;49.32;100690.48;1759850;81;21041;-62
2022/05/13 12:01:45;;;;;;;14.65;4.60;;;;;;;27.14;48.47;100695.94;1757936;81;20984;-61
2022/05/13 12:04:17;;;;;;;20.65;4.42;;;;;;;27.05;47.52;100686.88;1746921;81;21073;-62
2022/05/13 12:06:55;;;;;;;22.58;4.58;;;;;;;27.09;48.18;100690.36;1748548;81;21478;-62
2022/05/13 12:09:42;;;;;;;19.23;4.22;;;;;;;27.12;47.08;100692.64;1746126;81;21017;-61
2022/05/13 12:12:36;;;;;;;12.23;3.90;;;;;;;27.40;46.29;100703.30;1749112;81;21061;-63
2022/05/13 12:15:28;;;;;;;14.13;4.50;;;;;;;27.19;45.74;100699.41;1752086;81;21543;-62
2022/05/13 12:18:37;;;;;;;19.15;4.15;;;;;;;27.45;45.64;100704.41;1749232;81;21018;-62